Terminal Aerodrome Forecast
Issued by NWS Albany, NY

Home | Current Version | Previous Version | Text Only | Print | Product List | Glossary On
Versions: 1 2 3 4 5 6 7 8 9 10 11 12 13
202
FTUS41 KALY 231720
TAFGFL
TAF
KGFL 231720Z 2318/2418 29010G18KT P6SM VCSH SCT050 SCT100
      TEMPO 2319/2323 3SM -TSRA BR BKN050CB
     FM232300 32007KT P6SM FEW050 SCT100 SCT250
     FM240300 34004KT P6SM FEW030
     FM240600 VRB03KT 3SM BR FEW030
     FM241200 07004KT P6SM SKC=

USA.gov is the U.S. government's official web portal to all federal, state and local government web resources and services.